createdAt,value
2023-02-19T00:02:25.468Z,10.05
2023-02-19T00:04:52.140Z,11.30
2023-02-19T00:07:18.859Z,12.00
2023-02-19T00:09:45.553Z,11.48
2023-02-19T00:12:12.332Z,12.32
2023-02-19T00:14:39.429Z,13.02
2023-02-19T00:17:07.441Z,11.80
2023-02-19T00:19:34.053Z,11.60
2023-02-19T00:22:00.849Z,12.57
2023-02-19T00:24:27.847Z,12.90
2023-02-19T00:26:54.673Z,13.18
2023-02-19T00:29:21.936Z,12.70
2023-02-19T00:31:49.634Z,12.05
2023-02-19T00:34:17.798Z,12.70
2023-02-19T00:36:44.723Z,12.75
2023-02-19T00:39:14.565Z,12.93
2023-02-19T00:41:41.766Z,13.07
2023-02-19T00:44:10.718Z,12.68
2023-02-19T00:46:40.039Z,13.77
2023-02-19T00:49:08.097Z,13.45
2023-02-19T00:51:38.043Z,13.02
2023-02-19T00:54:05.931Z,14.10
2023-02-19T00:56:33.095Z,13.65
2023-02-19T00:59:00.300Z,13.88
2023-02-19T01:01:26.976Z,14.90
2023-02-19T01:03:54.017Z,14.88
2023-02-19T01:06:20.851Z,15.93
2023-02-19T01:08:49.518Z,15.02
2023-02-19T01:11:17.465Z,16.63
2023-02-19T01:13:44.482Z,16.60
2023-02-19T01:16:13.791Z,17.73
2023-02-19T01:18:40.952Z,17.25
2023-02-19T01:21:10.187Z,17.83
2023-02-19T01:23:37.318Z,17.63
2023-02-19T01:26:07.072Z,17.52
2023-02-19T01:28:34.119Z,18.90
2023-02-19T01:31:02.012Z,18.38
2023-02-19T01:33:28.830Z,19.52
2023-02-19T01:35:55.824Z,18.10
2023-02-19T01:38:22.775Z,19.85
2023-02-19T01:40:55.879Z,19.67
2023-02-19T01:43:24.305Z,20.00
2023-02-19T01:45:51.173Z,18.95
2023-02-19T01:48:21.243Z,18.88
2023-02-19T01:50:50.680Z,19.42
2023-02-19T01:53:22.090Z,18.33
2023-02-19T01:55:53.000Z,21.20
2023-02-19T01:58:19.957Z,18.77
2023-02-19T02:00:48.232Z,19.50
2023-02-19T02:03:15.101Z,18.95
2023-02-19T02:06:02.507Z,19.20
2023-02-19T02:08:33.498Z,19.23
2023-02-19T02:11:02.312Z,19.77
2023-02-19T02:13:31.498Z,19.63
2023-02-19T02:16:08.969Z,19.80
2023-02-19T02:18:44.905Z,21.38
2023-02-19T02:21:53.523Z,20.30
2023-02-19T02:24:57.154Z,19.00
2023-02-19T02:27:49.367Z,20.88
2023-02-19T02:30:44.506Z,19.60
2023-02-19T02:33:23.275Z,18.77
2023-02-19T02:35:57.495Z,19.38
2023-02-19T02:38:28.043Z,18.70
2023-02-19T02:40:58.589Z,18.48
2023-02-19T02:43:25.650Z,18.75
2023-02-19T02:45:53.871Z,19.67
2023-02-19T02:48:35.632Z,19.88
2023-02-19T02:51:14.107Z,18.38
2023-02-19T02:53:51.404Z,18.08
2023-02-19T02:56:20.961Z,18.58
2023-02-19T02:58:51.789Z,17.83
2023-02-19T03:01:29.218Z,16.73
2023-02-19T03:04:02.262Z,15.52
2023-02-19T03:06:35.157Z,16.52
2023-02-19T03:09:09.177Z,16.70
2023-02-19T03:11:40.074Z,18.05
2023-02-19T03:14:13.317Z,17.85
2023-02-19T03:16:44.667Z,17.00
2023-02-19T03:19:15.846Z,16.10
2023-02-19T03:21:46.129Z,17.13
2023-02-19T03:24:14.709Z,16.30
2023-02-19T03:26:44.614Z,14.82
2023-02-19T03:29:14.380Z,14.60
2023-02-19T03:31:46.809Z,14.98
2023-02-19T03:34:17.138Z,14.93
2023-02-19T03:36:49.212Z,14.38
2023-02-19T03:41:56.292Z,13.00
2023-02-19T03:44:32.688Z,13.10
2023-02-19T03:47:08.017Z,12.50
2023-02-19T03:49:48.942Z,12.60
2023-02-19T03:52:24.959Z,11.50
2023-02-19T03:54:57.752Z,11.07
2023-02-19T03:57:33.919Z,11.32
2023-02-19T04:00:10.689Z,10.85
2023-02-19T04:02:49.910Z,11.35
2023-02-19T04:05:21.258Z,10.40
2023-02-19T04:07:56.298Z,11.20
2023-02-19T04:10:30.973Z,9.82
2023-02-19T04:13:04.195Z,9.85
2023-02-19T04:15:34.312Z,9.55
2023-02-19T04:18:07.616Z,9.00
2023-02-19T04:20:41.306Z,8.45
2023-02-19T04:23:10.422Z,8.18
2023-02-19T04:25:39.829Z,8.73
2023-02-19T04:28:08.548Z,8.00
2023-02-19T04:30:35.521Z,7.43
2023-02-19T04:33:04.556Z,7.20
2023-02-19T04:35:31.587Z,6.68
2023-02-19T04:37:58.454Z,7.72
2023-02-19T04:40:25.559Z,7.22
2023-02-19T04:42:53.413Z,7.70
2023-02-19T04:45:25.174Z,7.60
2023-02-19T04:47:54.268Z,7.22
2023-02-19T04:50:25.205Z,7.03
2023-02-19T04:52:53.519Z,6.80
2023-02-19T04:55:20.394Z,6.30
2023-02-19T04:57:47.306Z,5.43
2023-02-19T05:00:14.524Z,5.43
2023-02-19T05:02:44.331Z,5.75
2023-02-19T05:05:11.366Z,4.68
2023-02-19T05:07:46.959Z,4.80
2023-02-19T05:10:13.890Z,4.68
2023-02-19T05:12:40.897Z,4.45
2023-02-19T05:15:08.288Z,4.20
2023-02-19T05:17:35.504Z,5.22
2023-02-19T05:20:03.673Z,3.88
2023-02-19T05:22:30.893Z,5.07
2023-02-19T05:24:59.217Z,4.65
2023-02-19T05:27:26.086Z,4.72
2023-02-19T05:29:54.787Z,4.80
2023-02-19T05:32:24.583Z,4.53
2023-02-19T05:34:52.398Z,4.47
2023-02-19T05:37:20.150Z,4.78
2023-02-19T05:39:48.711Z,5.03
2023-02-19T05:42:17.533Z,4.55
2023-02-19T05:44:44.563Z,5.10
2023-02-19T05:47:11.883Z,3.85
2023-02-19T05:49:38.911Z,4.80
2023-02-19T05:52:05.984Z,4.95
2023-02-19T05:54:33.889Z,5.07
2023-02-19T05:57:01.157Z,5.57
2023-02-19T05:59:29.551Z,4.65
2023-02-19T06:01:56.483Z,5.75
2023-02-19T06:04:23.549Z,5.47
2023-02-19T06:06:51.537Z,5.50
2023-02-19T06:09:18.552Z,5.28
2023-02-19T06:11:47.249Z,5.10
2023-02-19T06:14:14.513Z,5.30
2023-02-19T06:16:47.832Z,4.90
2023-02-19T06:19:16.859Z,5.88
2023-02-19T06:21:46.751Z,4.93
2023-02-19T06:24:16.155Z,4.78
2023-02-19T06:26:45.746Z,5.47
2023-02-19T06:29:15.240Z,5.07
2023-02-19T06:31:47.555Z,4.63
2023-02-19T06:34:14.592Z,4.85
2023-02-19T06:36:41.621Z,4.53
2023-02-19T06:39:10.192Z,4.70
2023-02-19T06:41:39.616Z,4.43
2023-02-19T06:44:10.991Z,5.15
2023-02-19T06:46:38.258Z,4.55
2023-02-19T06:49:09.828Z,4.22
2023-02-19T06:51:42.597Z,4.78
2023-02-19T06:54:11.498Z,5.68
2023-02-19T06:56:41.281Z,4.10
2023-02-19T06:59:15.884Z,5.57
2023-02-19T07:01:45.587Z,4.35
2023-02-19T07:04:14.304Z,4.97
2023-02-19T07:06:47.734Z,4.80
2023-02-19T07:09:15.318Z,5.00
2023-02-19T07:11:42.057Z,5.10
2023-02-19T07:14:17.654Z,5.38
2023-02-19T07:16:48.693Z,4.72
2023-02-19T07:19:20.190Z,4.97
2023-02-19T07:21:49.664Z,5.18
2023-02-19T07:24:16.743Z,3.70
2023-02-19T07:26:43.709Z,4.53
2023-02-19T07:29:13.034Z,4.13
2023-02-19T07:31:42.682Z,4.65
2023-02-19T07:34:09.909Z,4.97
2023-02-19T07:36:38.536Z,5.78
2023-02-19T07:39:10.047Z,5.10
2023-02-19T07:41:37.196Z,4.78
2023-02-19T07:44:05.553Z,5.20
2023-02-19T07:46:32.996Z,4.07
2023-02-19T07:49:00.489Z,4.80
2023-02-19T07:51:36.409Z,4.95
2023-02-19T07:54:05.166Z,4.65
2023-02-19T07:56:32.136Z,5.55
2023-02-19T07:59:00.434Z,4.95
2023-02-19T08:01:27.497Z,4.80
2023-02-19T08:04:00.438Z,5.93
2023-02-19T08:06:31.684Z,5.80
2023-02-19T08:09:04.877Z,5.57
2023-02-19T08:11:31.813Z,5.43
2023-02-19T08:13:58.675Z,5.10
2023-02-19T08:16:40.841Z,4.05
2023-02-19T08:19:09.529Z,4.68
2023-02-19T08:21:36.517Z,5.00
2023-02-19T08:24:05.677Z,4.30
2023-02-19T08:26:33.124Z,4.03
2023-02-19T08:28:59.752Z,4.55
2023-02-19T08:31:26.728Z,4.00
2023-02-19T08:33:53.592Z,3.90
2023-02-19T08:36:20.383Z,3.95
2023-02-19T08:38:47.093Z,3.72
2023-02-19T08:41:15.462Z,4.10
2023-02-19T08:43:42.770Z,4.13
2023-02-19T08:46:11.424Z,4.93
2023-02-19T08:48:38.862Z,4.93
2023-02-19T08:51:07.873Z,5.00
2023-02-19T08:53:36.261Z,4.57
2023-02-19T08:56:05.183Z,4.45
2023-02-19T08:58:33.361Z,4.20
2023-02-19T09:01:00.208Z,4.53
2023-02-19T09:03:26.968Z,4.88
2023-02-19T09:05:53.634Z,3.88
2023-02-19T09:08:20.178Z,4.05
2023-02-19T09:10:57.524Z,4.35
2023-02-19T09:13:24.296Z,4.40
2023-02-19T09:15:52.351Z,5.35
2023-02-19T09:18:19.302Z,5.25
2023-02-19T09:20:45.977Z,6.03
2023-02-19T09:23:12.550Z,6.18
2023-02-19T09:25:39.181Z,6.00
2023-02-19T09:28:05.867Z,7.10
2023-02-19T09:30:32.518Z,6.43
2023-02-19T09:33:00.683Z,6.75
2023-02-19T09:35:27.739Z,6.60
2023-02-19T09:37:54.371Z,6.78
2023-02-19T09:40:21.055Z,6.82
2023-02-19T09:42:50.088Z,6.70
2023-02-19T09:45:21.830Z,7.05
2023-02-19T09:47:49.607Z,7.47
2023-02-19T09:50:22.034Z,8.13
2023-02-19T09:55:29.093Z,6.20
2023-02-19T09:57:57.909Z,7.72
2023-02-19T10:00:27.094Z,6.72
2023-02-19T10:03:04.359Z,7.20
2023-02-19T10:05:33.470Z,7.43
2023-02-19T10:08:00.631Z,7.50
2023-02-19T10:10:30.991Z,7.38
2023-02-19T10:13:11.411Z,7.30
2023-02-19T10:15:44.225Z,6.05
2023-02-19T10:18:11.346Z,6.72
2023-02-19T10:20:40.167Z,7.63
2023-02-19T10:23:10.980Z,6.32
2023-02-19T10:25:45.010Z,6.60
2023-02-19T10:28:16.420Z,6.90
2023-02-19T10:30:43.538Z,6.05
2023-02-19T10:33:11.845Z,6.10
2023-02-19T10:35:52.817Z,5.78
2023-02-19T10:38:21.217Z,5.13
2023-02-19T10:40:48.407Z,5.57
2023-02-19T10:43:26.587Z,5.10
2023-02-19T10:45:53.352Z,5.70
2023-02-19T10:48:24.079Z,6.47
2023-02-19T10:50:55.039Z,6.40
2023-02-19T10:53:23.359Z,6.93
2023-02-19T10:56:07.109Z,6.93
2023-02-19T10:58:33.831Z,6.78
2023-02-19T11:01:14.952Z,6.55
2023-02-19T11:03:42.276Z,6.38
2023-02-19T11:06:12.277Z,7.57
2023-02-19T11:08:48.242Z,6.97
2023-02-19T11:11:27.331Z,6.72
2023-02-19T11:13:55.858Z,7.18
2023-02-19T11:16:22.996Z,7.57
2023-02-19T11:18:57.031Z,7.53
2023-02-19T11:21:28.756Z,7.53
2023-02-19T11:23:55.939Z,7.33
2023-02-19T11:26:25.320Z,8.07
2023-02-19T11:28:56.708Z,7.63
2023-02-19T11:31:26.459Z,6.93
2023-02-19T11:33:58.584Z,8.05
2023-02-19T11:36:31.977Z,7.05
2023-02-19T11:39:05.925Z,7.85
2023-02-19T11:41:56.785Z,7.95
2023-02-19T11:44:37.723Z,9.23
2023-02-19T11:47:30.940Z,9.38
2023-02-19T11:50:05.019Z,10.55
2023-02-19T11:52:38.648Z,10.15
2023-02-19T11:55:16.455Z,10.75
2023-02-19T11:57:45.484Z,10.43
2023-02-19T12:00:24.134Z,9.23
2023-02-19T12:03:21.939Z,9.35
2023-02-19T12:06:08.025Z,7.55
2023-02-19T12:08:48.435Z,7.53
2023-02-19T12:11:33.919Z,7.53
2023-02-19T12:14:26.113Z,6.97
2023-02-19T12:16:59.880Z,6.30
2023-02-19T12:19:56.501Z,5.47
2023-02-19T12:22:29.430Z,5.00
2023-02-19T12:25:28.091Z,5.45
2023-02-19T12:28:19.398Z,5.32
2023-02-19T12:31:17.195Z,4.85
2023-02-19T12:34:02.824Z,5.07
2023-02-19T12:36:40.585Z,4.35
2023-02-19T12:39:16.540Z,3.58
2023-02-19T12:41:53.602Z,4.15
2023-02-19T12:44:26.055Z,4.03
2023-02-19T12:49:27.434Z,2.60
2023-02-19T12:51:57.525Z,3.10
2023-02-19T12:54:27.852Z,2.58
2023-02-19T12:57:01.052Z,3.10
2023-02-19T12:59:33.082Z,3.00
2023-02-19T13:02:06.008Z,2.70
2023-02-19T13:04:41.358Z,2.65
2023-02-19T13:07:11.621Z,2.70
2023-02-19T13:09:43.824Z,2.72
2023-02-19T13:12:17.732Z,2.90
2023-02-19T13:14:48.006Z,2.60
2023-02-19T13:17:24.253Z,2.55
2023-02-19T13:19:57.179Z,3.05
2023-02-19T13:22:31.963Z,2.65
2023-02-19T13:25:00.042Z,2.88
2023-02-19T13:30:30.014Z,3.17
2023-02-19T13:35:55.356Z,2.78
2023-02-19T13:38:22.436Z,2.85
2023-02-19T13:40:54.510Z,3.30
2023-02-19T13:43:25.534Z,2.70
2023-02-19T13:45:56.751Z,3.15
2023-02-19T13:48:29.251Z,3.05
2023-02-19T13:53:58.217Z,2.80
2023-02-19T13:56:42.688Z,2.83
2023-02-19T13:59:32.975Z,2.42
2023-02-19T14:02:29.367Z,2.40
2023-02-19T14:04:58.467Z,2.53
2023-02-19T14:07:50.578Z,2.15
2023-02-19T14:10:57.118Z,2.28
2023-02-19T14:14:05.622Z,2.65
2023-02-19T14:16:51.334Z,2.38
2023-02-19T14:19:46.726Z,2.38
2023-02-19T14:22:48.829Z,2.28
2023-02-19T14:25:38.321Z,2.37
2023-02-19T14:28:14.040Z,3.03
2023-02-19T14:30:46.544Z,2.53
2023-02-19T14:33:16.696Z,2.50
2023-02-19T14:35:46.076Z,2.90
2023-02-19T14:38:18.514Z,2.35
2023-02-19T14:43:15.841Z,1.90
2023-02-19T14:45:47.212Z,2.10
2023-02-19T14:48:21.348Z,2.20
2023-02-19T14:50:51.163Z,1.70
2023-02-19T14:53:20.613Z,2.17
2023-02-19T14:55:49.186Z,2.00
2023-02-19T14:58:20.859Z,1.52
2023-02-19T15:00:47.529Z,1.45
2023-02-19T15:03:28.024Z,1.65
2023-02-19T15:05:58.001Z,1.13
2023-02-19T15:08:30.609Z,0.85
2023-02-19T15:10:57.345Z,0.63
2023-02-19T15:13:27.845Z,0.73
2023-02-19T15:15:55.347Z,0.90
2023-02-19T15:18:25.667Z,0.60
2023-02-19T15:21:00.765Z,0.70
2023-02-19T15:23:30.152Z,0.73
2023-02-19T15:25:57.934Z,0.63
2023-02-19T15:28:30.744Z,0.68
2023-02-19T15:31:12.770Z,0.60
2023-02-19T15:33:49.651Z,0.85
2023-02-19T15:36:22.233Z,0.75
2023-02-19T15:38:55.905Z,0.75
2023-02-19T15:41:25.864Z,0.80
2023-02-19T15:43:58.400Z,1.00
2023-02-19T15:49:00.828Z,1.00
2023-02-19T15:51:34.109Z,0.90
2023-02-19T15:54:07.786Z,1.00
2023-02-19T15:56:38.285Z,0.80
2023-02-19T15:59:11.678Z,0.80
2023-02-19T16:01:39.773Z,0.90
2023-02-19T16:04:12.694Z,0.93
2023-02-19T16:06:55.615Z,1.27
2023-02-19T16:09:24.157Z,1.50
2023-02-19T16:11:52.231Z,1.60
2023-02-19T16:14:24.632Z,1.55
2023-02-19T16:16:54.726Z,1.30
2023-02-19T16:19:27.040Z,1.40
2023-02-19T16:21:55.543Z,1.15
2023-02-19T16:24:28.438Z,1.00
2023-02-19T16:26:56.803Z,1.10
2023-02-19T16:29:25.473Z,0.93
2023-02-19T16:31:56.611Z,1.00
2023-02-19T16:34:43.918Z,1.00
2023-02-19T16:37:37.126Z,0.90
2023-02-19T16:40:37.141Z,0.65
2023-02-19T16:43:25.684Z,0.77
2023-02-19T16:45:52.569Z,0.68
2023-02-19T16:48:22.416Z,0.57
2023-02-19T16:50:50.425Z,0.80
2023-02-19T16:53:19.531Z,0.60
2023-02-19T16:55:46.190Z,0.70
2023-02-19T16:58:12.808Z,0.70
2023-02-19T17:00:39.773Z,0.77
2023-02-19T17:03:09.313Z,0.80
2023-02-19T17:05:37.531Z,0.50
2023-02-19T17:08:23.296Z,0.57
2023-02-19T17:10:50.355Z,0.65
2023-02-19T17:13:17.250Z,0.60
2023-02-19T17:15:43.983Z,0.50
2023-02-19T17:18:11.145Z,0.50
2023-02-19T17:20:38.851Z,0.50
2023-02-19T17:23:06.782Z,0.63
2023-02-19T17:25:33.365Z,0.50
2023-02-19T17:27:59.996Z,0.60
2023-02-19T17:30:28.608Z,0.40
2023-02-19T17:32:55.447Z,0.50
2023-02-19T17:35:22.616Z,0.63
2023-02-19T17:37:50.543Z,0.55
2023-02-19T17:40:32.098Z,1.00
2023-02-19T17:42:59.847Z,0.77
2023-02-19T17:45:26.520Z,0.98
2023-02-19T17:47:53.202Z,0.73
2023-02-19T17:50:22.232Z,0.57
2023-02-19T17:52:49.016Z,0.65
2023-02-19T17:55:17.439Z,0.60
2023-02-19T17:57:45.772Z,0.70
2023-02-19T18:00:14.820Z,0.50
2023-02-19T18:02:41.450Z,0.43
2023-02-19T18:05:08.318Z,0.50
2023-02-19T18:07:35.446Z,0.90
2023-02-19T18:10:02.143Z,0.38
2023-02-19T18:12:28.770Z,0.38
2023-02-19T18:14:56.833Z,0.30
2023-02-19T18:17:23.568Z,0.50
2023-02-19T18:19:51.183Z,0.52
2023-02-19T18:22:18.285Z,0.50
2023-02-19T18:24:46.106Z,0.40
2023-02-19T18:27:12.749Z,0.50
2023-02-19T18:29:39.529Z,0.30
2023-02-19T18:32:07.723Z,0.55
2023-02-19T18:34:34.376Z,0.57
2023-02-19T18:37:01.150Z,0.68
2023-02-19T18:39:29.473Z,0.50
2023-02-19T18:41:56.390Z,0.50
2023-02-19T18:44:24.473Z,0.40
2023-02-19T18:46:51.248Z,0.60
2023-02-19T18:49:19.402Z,0.75
2023-02-19T18:51:46.884Z,0.90
2023-02-19T18:54:15.936Z,1.05
2023-02-19T18:56:43.680Z,0.80
2023-02-19T18:59:11.000Z,0.88
2023-02-19T19:01:37.628Z,0.85
2023-02-19T19:04:05.131Z,0.85
2023-02-19T19:06:33.220Z,0.63
2023-02-19T19:08:59.866Z,1.50
2023-02-19T19:11:26.484Z,0.73
2023-02-19T19:13:53.187Z,0.95
2023-02-19T19:16:23.463Z,0.90
2023-02-19T19:18:50.210Z,0.68
2023-02-19T19:21:17.511Z,0.80
2023-02-19T19:23:45.560Z,0.60
2023-02-19T19:26:12.586Z,0.80
2023-02-19T19:28:40.695Z,0.60
2023-02-19T19:31:07.362Z,0.80
2023-02-19T19:33:34.270Z,0.80
2023-02-19T19:36:00.900Z,0.50
2023-02-19T19:38:27.496Z,1.05
2023-02-19T19:40:55.494Z,0.80
2023-02-19T19:43:22.133Z,0.68
2023-02-19T19:45:48.804Z,0.80
2023-02-19T19:48:15.387Z,0.70
2023-02-19T19:50:41.934Z,0.60
2023-02-19T19:53:08.616Z,0.55
2023-02-19T19:55:35.584Z,0.82
2023-02-19T19:58:03.631Z,0.63
2023-02-19T20:00:30.234Z,0.90
2023-02-19T20:02:57.009Z,0.80
2023-02-19T20:05:23.653Z,0.82
2023-02-19T20:07:50.284Z,0.80
2023-02-19T20:10:17.688Z,0.90
2023-02-19T20:12:44.447Z,0.75
2023-02-19T20:15:13.453Z,0.80
2023-02-19T20:17:40.047Z,0.77
2023-02-19T20:20:08.010Z,0.77
2023-02-19T20:22:34.647Z,1.00
2023-02-19T20:25:01.361Z,1.45
2023-02-19T20:27:28.034Z,0.70
2023-02-19T20:29:54.548Z,0.80
2023-02-19T20:32:22.912Z,0.82
2023-02-19T20:34:49.570Z,1.00
2023-02-19T20:37:16.348Z,0.82
2023-02-19T20:39:43.072Z,1.00
2023-02-19T20:42:09.674Z,0.90
2023-02-19T20:44:36.261Z,1.00
2023-02-19T20:47:03.213Z,1.00
2023-02-19T20:49:31.421Z,0.95
2023-02-19T20:51:59.525Z,1.02
2023-02-19T20:54:28.164Z,1.58
2023-02-19T20:56:56.805Z,1.10
2023-02-19T20:59:25.464Z,1.33
2023-02-19T21:01:52.170Z,1.27
2023-02-19T21:04:19.095Z,1.50
2023-02-19T21:06:47.016Z,1.50
2023-02-19T21:09:13.769Z,1.45
2023-02-19T21:11:40.390Z,2.30
2023-02-19T21:14:07.018Z,2.15
2023-02-19T21:16:34.070Z,2.45
2023-02-19T21:19:00.980Z,2.38
2023-02-19T21:21:28.219Z,2.55
2023-02-19T21:23:58.100Z,2.85
2023-02-19T21:26:32.092Z,3.25
2023-02-19T21:28:58.682Z,3.10
2023-02-19T21:31:34.701Z,3.20
2023-02-19T21:34:03.603Z,2.65
2023-02-19T21:36:30.220Z,2.38
2023-02-19T21:38:58.329Z,2.28
2023-02-19T21:41:25.306Z,2.40
2023-02-19T21:43:53.702Z,2.22
2023-02-19T21:46:20.737Z,2.50
2023-02-19T21:48:47.938Z,2.30
2023-02-19T21:51:14.601Z,2.70
2023-02-19T21:53:41.255Z,2.47
2023-02-19T21:56:09.467Z,3.15
2023-02-19T21:58:36.232Z,3.33
2023-02-19T22:01:03.065Z,4.18
2023-02-19T22:03:30.799Z,4.38
2023-02-19T22:06:01.610Z,4.68
2023-02-19T22:08:28.289Z,4.50
2023-02-19T22:10:54.946Z,4.40
2023-02-19T22:13:22.945Z,4.00
2023-02-19T22:15:49.503Z,3.65
2023-02-19T22:18:16.267Z,3.80
2023-02-19T22:20:42.872Z,4.00
2023-02-19T22:23:09.455Z,4.07
2023-02-19T22:25:36.113Z,5.03
2023-02-19T22:28:03.385Z,5.43
2023-02-19T22:30:31.443Z,4.55
2023-02-19T22:32:58.155Z,5.95
2023-02-19T22:35:24.727Z,5.50
2023-02-19T22:37:51.397Z,5.57
2023-02-19T22:40:18.091Z,7.05
2023-02-19T22:42:44.716Z,6.78
2023-02-19T22:45:11.993Z,7.10
2023-02-19T22:47:40.083Z,7.28
2023-02-19T22:50:07.916Z,7.75
2023-02-19T22:52:34.494Z,7.82
2023-02-19T22:55:01.144Z,8.10
2023-02-19T22:57:27.723Z,8.00
2023-02-19T22:59:54.293Z,7.80
2023-02-19T23:02:20.998Z,8.63
2023-02-19T23:04:48.995Z,8.45
2023-02-19T23:07:15.727Z,8.07
2023-02-19T23:09:42.268Z,8.95
2023-02-19T23:12:10.817Z,9.02
2023-02-19T23:14:37.545Z,9.10
2023-02-19T23:17:04.223Z,8.98
2023-02-19T23:19:30.845Z,9.40
2023-02-19T23:21:59.045Z,8.43
2023-02-19T23:24:25.796Z,9.30
2023-02-19T23:26:53.768Z,9.80
2023-02-19T23:29:23.824Z,9.25
2023-02-19T23:31:52.039Z,8.90
2023-02-19T23:34:18.987Z,9.35
2023-02-19T23:36:47.909Z,9.60
2023-02-19T23:39:18.391Z,10.35
2023-02-19T23:41:48.627Z,10.48
2023-02-19T23:44:16.040Z,10.27
2023-02-19T23:46:42.759Z,10.13
2023-02-19T23:49:09.343Z,10.60
2023-02-19T23:51:36.075Z,9.80
2023-02-19T23:54:02.813Z,10.98
2023-02-19T23:56:30.787Z,10.07
2023-02-19T23:58:57.772Z,11.55
